Time;durP1;ratioP1;P1;durP2;ratioP2;P2;SDS_P1;SDS_P2;PMS_P1;PMS_P2;Temp;Humidity;BMP_temperature;BMP_pressure;BME280_temperature;BME280_humidity;BME280_pressure;Samples;Min_cycle;Max_cycle;Signal;HPM_P1;HPM_P2
2021/12/16 00:09:01;;;;;;;30.05;10.85;;;7.50;99.90;;;;;;5070739;28;20135;-83
2021/12/16 00:33:17;;;;;;;28.40;10.50;;;7.80;99.90;;;;;;5069525;28;20068;-84
2021/12/16 00:35:47;;;;;;;31.63;10.07;;;7.80;99.90;;;;;;5038853;28;20040;-84
2021/12/16 00:38:14;;;;;;;24.90;10.00;;;7.80;99.90;;;;;;5070906;28;20526;-83
2021/12/16 00:40:41;;;;;;;;;;;7.90;99.90;;;;;;5037846;28;20036;-84
2021/12/16 00:43:30;;;;;;;25.17;9.15;;;7.90;99.90;;;;;;5053728;28;20011;-84
2021/12/16 00:56:17;;;;;;;28.17;9.38;;;8.10;99.90;;;;;;5054357;28;20044;-84
2021/12/16 00:58:52;;;;;;;24.10;8.35;;;8.10;99.90;;;;;;5068850;28;20512;-84
2021/12/16 01:02:14;;;;;;;23.65;8.40;;;8.10;99.90;;;;;;5038203;28;20411;-84
2021/12/16 01:48:04;;;;;;;22.00;8.05;;;8.30;99.90;;;;;;5048960;28;20082;-84
2021/12/16 01:50:48;;;;;;;20.38;7.65;;;8.30;99.90;;;;;;5070025;28;20037;-84
2021/12/16 01:56:09;;;;;;;21.27;7.93;;;8.30;99.90;;;;;;5055400;28;20063;-84
2021/12/16 01:58:35;;;;;;;22.23;7.40;;;8.30;99.90;;;;;;5056490;28;20032;-84
2021/12/16 02:03:51;;;;;;;20.63;8.10;;;8.30;99.90;;;;;;5073774;28;20048;-84
2021/12/16 02:06:42;;;;;;;24.23;8.27;;;8.30;99.90;;;;;;5072996;28;20036;-84
2021/12/16 02:09:21;;;;;;;22.80;7.78;;;8.30;99.90;;;;;;5054191;28;20127;-84
2021/12/16 02:12:05;;;;;;;23.23;7.53;;;8.30;99.90;;;;;;5055778;28;20043;-84
2021/12/16 02:28:49;;;;;;;26.40;7.93;;;8.30;99.90;;;;;;5058927;28;20129;-84
2021/12/16 02:36:47;;;;;;;20.67;7.88;;;8.30;99.90;;;;;;5054910;28;20191;-84
2021/12/16 02:39:33;;;;;;;16.95;8.02;;;8.30;99.90;;;;;;5039926;28;20036;-84
2021/12/16 02:42:18;;;;;;;20.03;7.97;;;8.30;99.90;;;;;;5055156;28;20086;-84
2021/12/16 02:50:18;;;;;;;20.65;7.25;;;8.50;99.90;;;;;;5058923;28;20040;-84
2021/12/16 02:52:43;;;;;;;19.52;8.13;;;8.40;99.90;;;;;;5072946;28;20059;-84
2021/12/16 02:55:11;;;;;;;17.67;7.55;;;8.40;99.90;;;;;;5055426;28;20036;-84
2021/12/16 02:57:47;;;;;;;20.77;7.78;;;8.40;99.90;;;;;;5072180;28;20044;-84
2021/12/16 03:00:15;;;;;;;16.52;8.27;;;8.40;99.90;;;;;;5053878;28;20040;-85
2021/12/16 03:02:43;;;;;;;20.65;7.72;;;8.40;99.90;;;;;;5072847;28;20096;-84
2021/12/16 03:05:11;;;;;;;18.40;7.28;;;8.30;99.90;;;;;;5072511;28;20384;-84
2021/12/16 03:07:36;;;;;;;22.30;7.32;;;8.50;99.90;;;;;;5054780;28;20036;-84
2021/12/16 03:15:11;;;;;;;13.82;6.43;;;8.20;99.90;;;;;;5055106;28;20047;-84
2021/12/16 03:21:09;;;;;;;19.50;7.80;;;8.10;99.90;;;;;;5057769;28;19927;-84
2021/12/16 03:34:09;;;;;;;16.25;7.05;;;7.80;99.90;;;;;;5056421;28;20040;-84
2021/12/16 03:37:00;;;;;;;18.85;7.90;;;7.70;99.90;;;;;;5041163;28;20515;-84
2021/12/16 03:39:30;;;;;;;20.77;7.85;;;7.70;99.90;;;;;;5054190;28;20028;-85
2021/12/16 03:41:58;;;;;;;21.65;7.97;;;7.60;99.90;;;;;;5055346;28;20108;-84
2021/12/16 03:44:37;;;;;;;21.27;8.88;;;7.70;99.90;;;;;;5037955;28;20440;-84
2021/12/16 03:47:04;;;;;;;21.00;8.60;;;8.50;99.90;;;;;;5055950;28;20047;-84
2021/12/16 03:49:32;;;;;;;21.73;8.90;;;7.50;99.90;;;;;;5037509;28;20036;-84
2021/12/16 03:52:06;;;;;;;22.67;8.60;;;7.50;99.90;;;;;;5070401;28;20125;-83
2021/12/16 03:54:51;;;;;;;23.40;9.38;;;7.60;99.90;;;;;;5054649;28;20056;-84
2021/12/16 03:57:19;;;;;;;24.48;9.02;;;7.40;99.90;;;;;;5051873;28;20033;-81
2021/12/16 03:59:46;;;;;;;27.15;9.80;;;7.40;99.90;;;;;;5068941;28;20086;-81
2021/12/16 04:02:16;;;;;;;23.42;9.02;;;7.30;99.90;;;;;;5053476;28;20242;-80
2021/12/16 04:04:44;;;;;;;24.40;9.35;;;7.30;99.90;;;;;;5053747;28;20086;-81
2021/12/16 04:07:09;;;;;;;19.05;8.40;;;7.80;99.90;;;;;;5054323;28;20408;-81
2021/12/16 04:09:35;;;;;;;22.25;8.77;;;7.30;99.90;;;;;;5070330;28;20032;-81
2021/12/16 04:12:11;;;;;;;20.67;8.90;;;7.10;99.90;;;;;;5053521;28;20040;-81
2021/12/16 04:14:38;;;;;;;24.30;9.23;;;7.10;99.90;;;;;;5069900;28;20094;-81
2021/12/16 04:17:05;;;;;;;22.08;9.85;;;7.00;99.90;;;;;;5051061;28;20036;-81
2021/12/16 04:19:33;;;;;;;25.88;9.65;;;6.90;99.90;;;;;;5053320;28;20040;-81
2021/12/16 04:22:08;;;;;;;25.58;9.95;;;7.80;99.90;;;;;;5069984;28;20047;-81
2021/12/16 04:24:34;;;;;;;27.80;9.50;;;6.90;99.90;;;;;;5070113;28;20036;-80
2021/12/16 04:27:01;;;;;;;26.00;9.55;;;6.90;99.90;;;;;;5070029;28;20465;-81
2021/12/16 04:29:28;;;;;;;24.70;10.32;;;6.90;99.90;;;;;;5054008;28;20032;-81
2021/12/16 04:31:56;;;;;;;27.45;9.98;;;6.90;99.90;;;;;;5070143;28;20036;-81
2021/12/16 04:34:22;;;;;;;31.67;10.40;;;6.80;99.90;;;;;;5053896;28;20492;-80
2021/12/16 04:36:49;;;;;;;23.02;9.95;;;6.80;99.90;;;;;;5053830;28;20048;-81
2021/12/16 04:39:18;;;;;;;30.20;9.82;;;6.80;99.90;;;;;;5070549;28;20040;-81
2021/12/16 04:41:44;;;;;;;24.85;10.70;;;7.00;99.90;;;;;;5084769;28;20496;-81
2021/12/16 04:44:13;;;;;;;25.42;10.15;;;7.20;99.90;;;;;;5036440;28;20157;-81
2021/12/16 04:46:39;;;;;;;35.03;10.60;;;7.00;99.90;;;;;;5069701;28;20135;-81
2021/12/16 04:49:07;;;;;;;27.65;10.07;;;6.80;99.90;;;;;;5035971;28;20044;-84
2021/12/16 04:51:37;;;;;;;22.65;10.30;;;6.80;99.90;;;;;;5070455;28;20039;-84
2021/12/16 04:54:04;;;;;;;29.10;11.02;;;8.00;99.90;;;;;;5070308;28;20086;-84
2021/12/16 04:56:30;;;;;;;24.67;10.30;;;6.80;99.90;;;;;;5053617;28;20033;-84
2021/12/16 04:58:57;;;;;;;28.67;10.18;;;6.80;99.90;;;;;;5053435;28;20037;-83
2021/12/16 05:01:23;;;;;;;23.48;10.27;;;6.70;99.90;;;;;;5054256;28;20710;-84
2021/12/16 05:03:51;;;;;;;24.75;9.73;;;6.70;99.90;;;;;;5070455;28;20049;-84
2021/12/16 05:06:17;;;;;;;23.17;10.07;;;6.60;99.90;;;;;;5068055;28;20037;-84
2021/12/16 05:08:43;;;;;;;22.50;10.40;;;6.60;99.90;;;;;;5067967;28;20337;-84
2021/12/16 05:11:13;;;;;;;25.08;10.95;;;7.00;99.90;;;;;;5053833;28;20036;-84
2021/12/16 05:13:40;;;;;;;22.38;9.50;;;6.60;99.90;;;;;;5053298;28;20041;-83
2021/12/16 05:16:06;;;;;;;26.00;9.80;;;6.70;99.90;;;;;;5038016;28;20431;-85
2021/12/16 05:18:36;;;;;;;23.98;9.45;;;6.60;99.90;;;;;;5054390;28;20369;-86
2021/12/16 05:21:26;;;;;;;24.13;9.65;;;6.60;99.90;;;;;;5053664;28;20068;-84
2021/12/16 05:26:36;;;;;;;23.58;9.35;;;6.60;99.90;;;;;;5071071;28;20448;-85
2021/12/16 05:29:02;;;;;;;23.17;9.93;;;6.70;99.90;;;;;;5070468;28;20048;-87
2021/12/16 05:31:29;;;;;;;24.17;9.95;;;6.70;99.90;;;;;;5055677;28;20279;-86
2021/12/16 05:33:56;;;;;;;30.65;10.02;;;6.70;99.90;;;;;;5075033;28;20040;-86
2021/12/16 05:36:22;;;;;;;23.58;9.65;;;6.70;99.90;;;;;;5058987;28;20032;-85
2021/12/16 05:38:48;;;;;;;25.25;10.05;;;6.70;99.90;;;;;;5058199;28;20047;-86
2021/12/16 05:41:16;;;;;;;21.10;10.13;;;6.70;99.90;;;;;;5074715;28;20032;-86
2021/12/16 05:43:43;;;;;;;24.60;10.82;;;7.50;99.90;;;;;;5073808;28;20048;-85
2021/12/16 05:46:13;;;;;;;26.33;10.05;;;6.70;99.90;;;;;;5072958;28;20082;-81
2021/12/16 05:48:42;;;;;;;26.15;10.05;;;6.70;99.90;;;;;;5074246;28;20044;-80
2021/12/16 05:51:21;;;;;;;24.33;10.43;;;7.10;99.90;;;;;;5073174;28;20044;-80
2021/12/16 05:53:50;;;;;;;26.15;9.88;;;6.70;99.90;;;;;;5052397;28;20032;-78
2021/12/16 05:56:16;;;;;;;29.23;10.68;;;6.70;99.90;;;;;;5056308;28;20109;-80
2021/12/16 05:58:43;;;;;;;28.77;10.75;;;6.70;99.90;;;;;;5073174;28;20033;-80
2021/12/16 06:01:13;;;;;;;30.10;10.57;;;6.70;99.90;;;;;;5073114;28;20033;-80
2021/12/16 06:03:40;;;;;;;23.90;10.88;;;6.70;99.90;;;;;;5073243;28;20059;-81
2021/12/16 06:06:06;;;;;;;;;;;6.70;99.90;;;;;;5052538;28;20044;-80
2021/12/16 06:08:32;;;;;;;23.13;10.30;;;6.70;99.90;;;;;;5073363;28;19916;-80
2021/12/16 06:11:15;;;;;;;24.50;10.20;;;6.60;99.90;;;;;;5056234;28;20043;-80
2021/12/16 06:14:00;;;;;;;24.83;10.10;;;6.70;99.90;;;;;;5058708;28;20056;-81
2021/12/16 06:27:28;;;;;;;28.10;9.55;;;6.60;99.90;;;;;;5051566;28;20044;-80
2021/12/16 06:29:54;;;;;;;27.25;9.40;;;6.60;99.90;;;;;;5072823;28;20040;-80
2021/12/16 06:32:20;;;;;;;;;;;6.60;99.90;;;;;;5073161;28;20886;-80
2021/12/16 06:34:46;;;;;;;28.58;10.75;;;6.60;99.90;;;;;;5055508;28;20026;-80
2021/12/16 06:37:12;;;;;;;26.73;10.15;;;6.60;99.90;;;;;;5072753;28;20476;-80
2021/12/16 06:39:39;;;;;;;23.10;10.18;;;6.60;99.90;;;;;;5072206;28;20040;-80
2021/12/16 06:42:07;;;;;;;26.45;10.88;;;6.60;99.90;;;;;;5072568;28;20051;-80
2021/12/16 06:44:50;;;;;;;26.45;10.68;;;6.50;99.90;;;;;;5072699;28;20076;-80
2021/12/16 06:47:21;;;;;;;30.80;10.90;;;6.50;99.90;;;;;;5068165;28;20037;-80
2021/12/16 06:49:50;;;;;;;22.95;10.35;;;6.40;99.90;;;;;;5072321;28;20094;-80
2021/12/16 06:52:20;;;;;;;24.63;10.32;;;6.80;99.90;;;;;;5071885;28;20114;-80
2021/12/16 06:58:19;;;;;;;25.02;10.85;;;6.40;99.90;;;;;;5067887;28;20048;-80
2021/12/16 07:00:38;;;;;;;30.70;11.45;;;6.80;99.90;;;;;;5046193;28;20044;-80
2021/12/16 07:03:06;;;;;;;30.25;11.50;;;6.40;99.90;;;;;;5051262;28;20075;-80
2021/12/16 07:05:36;;;;;;;26.83;10.93;;;6.30;99.90;;;;;;5072038;28;20040;-80
2021/12/16 07:08:06;;;;;;;29.77;11.27;;;6.30;99.90;;;;;;5055781;28;20514;-80
2021/12/16 07:10:32;;;;;;;26.10;10.45;;;6.30;99.90;;;;;;5072504;28;20044;-80
2021/12/16 07:13:06;;;;;;;31.40;10.77;;;6.60;99.90;;;;;;5054121;28;20033;-80
2021/12/16 07:15:32;;;;;;;32.97;10.25;;;6.30;99.90;;;;;;5070100;28;20051;-80
2021/12/16 07:17:58;;;;;;;28.02;10.65;;;6.20;99.90;;;;;;5067950;28;20029;-80
2021/12/16 07:20:28;;;;;;;31.65;11.82;;;6.20;99.90;;;;;;5054014;28;20121;-80
2021/12/16 07:22:56;;;;;;;28.60;11.43;;;6.20;99.90;;;;;;5053504;28;20032;-80
2021/12/16 07:25:21;;;;;;;32.08;11.98;;;6.20;99.90;;;;;;5053326;28;20134;-80
2021/12/16 07:27:47;;;;;;;27.33;11.05;;;6.90;99.90;;;;;;5070347;28;20092;-80
2021/12/16 07:30:16;;;;;;;41.70;11.93;;;6.30;99.90;;;;;;5054990;28;20067;-80
2021/12/16 07:32:42;;;;;;;30.67;10.90;;;6.20;99.90;;;;;;5068971;28;20086;-80
2021/12/16 07:35:13;;;;;;;29.10;11.10;;;6.20;99.90;;;;;;5054226;28;20037;-80
2021/12/16 07:37:39;;;;;;;32.30;11.55;;;6.10;99.90;;;;;;5071339;28;20722;-80
2021/12/16 07:40:08;;;;;;;28.38;12.00;;;6.10;99.90;;;;;;5054985;28;20499;-80
2021/12/16 07:42:48;;;;;;;32.30;11.68;;;6.10;99.90;;;;;;5071031;28;20396;-80
2021/12/16 07:45:17;;;;;;;33.78;11.57;;;6.10;99.90;;;;;;5067547;28;20040;-80
2021/12/16 07:47:44;;;;;;;27.88;11.50;;;6.10;99.90;;;;;;5070543;28;20051;-80
2021/12/16 07:50:12;;;;;;;27.33;10.70;;;6.10;99.90;;;;;;5070772;28;20179;-80
2021/12/16 07:52:40;;;;;;;21.95;9.65;;;6.70;99.90;;;;;;5070137;28;20037;-80
2021/12/16 07:55:07;;;;;;;31.15;12.25;;;6.00;99.90;;;;;;5054182;28;20036;-80
2021/12/16 07:57:32;;;;;;;30.40;11.63;;;6.00;99.90;;;;;;5054258;28;20036;-80
2021/12/16 07:59:58;;;;;;;27.17;11.53;;;6.10;99.90;;;;;;5070949;28;20090;-80
2021/12/16 08:02:25;;;;;;;31.15;10.88;;;6.10;99.90;;;;;;5070495;28;20359;-80
2021/12/16 08:04:52;;;;;;;33.47;12.20;;;6.10;99.90;;;;;;5070654;28;20052;-80
2021/12/16 08:07:18;;;;;;;24.67;11.23;;;6.10;99.90;;;;;;5054147;28;20070;-80
2021/12/16 08:09:45;;;;;;;40.45;12.88;;;6.10;99.90;;;;;;5070842;28;20515;-80
2021/12/16 08:12:13;;;;;;;27.17;11.63;;;6.20;99.90;;;;;;5070844;28;20044;-80
2021/12/16 08:14:41;;;;;;;38.63;12.52;;;6.20;99.90;;;;;;5069985;28;20106;-80
2021/12/16 08:17:08;;;;;;;29.25;11.60;;;6.20;99.90;;;;;;5099522;28;20062;-80
2021/12/16 08:19:33;;;;;;;29.67;11.48;;;6.50;99.90;;;;;;5053497;28;20028;-80
2021/12/16 08:21:59;;;;;;;30.92;11.90;;;6.20;99.90;;;;;;5070238;28;20028;-80
2021/12/16 08:24:25;;;;;;;27.33;11.43;;;6.30;99.90;;;;;;5069883;28;20039;-80
2021/12/16 08:26:53;;;;;;;28.27;11.23;;;6.30;99.90;;;;;;5053596;28;20440;-80
2021/12/16 08:29:20;;;;;;;25.13;10.27;;;6.40;99.90;;;;;;5053698;28;20429;-80
2021/12/16 08:31:47;;;;;;;25.45;10.40;;;6.40;99.90;;;;;;5069923;28;20041;-80
2021/12/16 08:34:13;;;;;;;;;;;6.40;99.90;;;;;;5070211;28;20500;-80
2021/12/16 08:36:39;;;;;;;26.63;10.52;;;6.40;99.90;;;;;;5069761;28;19916;-80
2021/12/16 08:39:08;;;;;;;23.52;11.27;;;6.50;99.90;;;;;;5069807;28;20043;-80
2021/12/16 08:41:47;;;;;;;25.98;11.35;;;6.60;99.90;;;;;;5051081;28;20028;-80
2021/12/16 08:44:14;;;;;;;25.90;11.10;;;6.60;99.90;;;;;;5070038;28;20036;-80
2021/12/16 08:46:46;;;;;;;24.58;11.57;;;6.70;99.90;;;;;;5052766;28;20119;-80
2021/12/16 08:49:12;;;;;;;29.08;12.05;;;6.80;99.90;;;;;;5070048;28;20555;-80
2021/12/16 08:51:46;;;;;;;26.48;11.75;;;6.90;99.90;;;;;;5069827;28;20048;-80
2021/12/16 08:54:12;;;;;;;30.30;12.27;;;6.90;99.90;;;;;;5050411;28;20036;-80
2021/12/16 08:56:39;;;;;;;29.05;11.77;;;7.30;99.90;;;;;;5053067;28;20039;-80
2021/12/16 08:59:05;;;;;;;27.23;11.57;;;7.00;99.90;;;;;;5053128;28;20475;-80
2021/12/16 09:01:35;;;;;;;28.15;12.50;;;7.00;99.90;;;;;;5053015;28;20063;-80
2021/12/16 09:04:01;;;;;;;30.08;12.38;;;7.00;99.90;;;;;;5069788;28;20064;-80
2021/12/16 09:06:27;;;;;;;35.72;12.98;;;7.10;99.90;;;;;;5039628;28;20514;-80
2021/12/16 09:08:54;;;;;;;29.65;13.15;;;7.10;99.90;;;;;;5074118;28;20178;-80
2021/12/16 09:11:22;;;;;;;;;;;7.10;99.90;;;;;;5074035;28;20082;-80
2021/12/16 09:13:51;;;;;;;32.88;14.57;;;7.10;99.90;;;;;;5057117;28;20291;-80
2021/12/16 09:16:20;;;;;;;35.55;14.05;;;7.20;99.90;;;;;;5073133;28;20106;-80
2021/12/16 09:18:47;;;;;;;38.22;16.48;;;7.20;99.90;;;;;;5073155;28;20102;-80
2021/12/16 09:21:16;;;;;;;36.90;16.02;;;7.20;99.90;;;;;;5073225;28;20032;-80
2021/12/16 09:23:45;;;;;;;42.35;18.25;;;7.20;99.90;;;;;;5073136;28;20120;-80
2021/12/16 09:26:15;;;;;;;35.65;16.52;;;7.40;99.90;;;;;;5073394;28;20076;-80
2021/12/16 09:28:41;;;;;;;34.90;16.30;;;7.30;99.90;;;;;;5071016;28;20131;-80
2021/12/16 09:31:11;;;;;;;56.25;18.13;;;7.30;99.90;;;;;;5073336;28;20044;-80
2021/12/16 09:33:42;;;;;;;63.28;18.70;;;7.30;99.90;;;;;;5073400;28;20041;-80
2021/12/16 09:36:09;;;;;;;72.53;20.13;;;7.30;99.90;;;;;;5073577;28;20369;-80
2021/12/16 09:38:35;;;;;;;86.95;21.20;;;7.40;99.90;;;;;;5056208;28;20082;-80
2021/12/16 09:41:00;;;;;;;85.50;21.85;;;8.10;99.90;;;;;;5056674;28;20051;-80
2021/12/16 09:43:29;;;;;;;141.38;27.02;;;7.40;99.90;;;;;;5055825;28;20074;-80
2021/12/16 09:45:59;;;;;;;94.22;22.23;;;7.40;99.90;;;;;;5056277;28;20044;-80
2021/12/16 09:48:25;;;;;;;128.65;22.15;;;7.50;99.90;;;;;;5056620;28;20059;-80
2021/12/16 09:50:52;;;;;;;142.45;23.13;;;7.50;99.90;;;;;;5056200;28;20044;-80
2021/12/16 09:53:19;;;;;;;144.68;22.55;;;7.50;99.90;;;;;;5055793;28;20055;-80
2021/12/16 09:55:50;;;;;;;127.75;21.95;;;7.50;99.90;;;;;;5072978;28;20052;-80
2021/12/16 09:58:17;;;;;;;166.05;25.00;;;7.50;99.90;;;;;;5056222;28;20115;-80
2021/12/16 10:00:43;;;;;;;137.50;22.42;;;7.50;99.90;;;;;;5073227;28;20040;-80
2021/12/16 10:03:09;;;;;;;126.70;22.92;;;7.50;99.90;;;;;;5073537;28;20086;-80
2021/12/16 10:05:36;;;;;;;167.65;25.90;;;7.50;99.90;;;;;;5056308;28;20107;-80
2021/12/16 10:08:05;;;;;;;180.57;25.05;;;7.50;99.90;;;;;;5073200;28;20374;-80
2021/12/16 10:10:31;;;;;;;153.05;24.55;;;7.60;99.90;;;;;;5054135;28;20036;-80
2021/12/16 10:13:02;;;;;;;291.08;34.00;;;7.60;99.90;;;;;;5056213;28;20048;-80
2021/12/16 10:17:58;;;;;;;207.18;25.67;;;7.70;99.90;;;;;;5073178;28;20040;-80
2021/12/16 10:20:31;;;;;;;254.63;30.90;;;7.70;99.90;;;;;;5072297;28;20030;-80
2021/12/16 10:23:08;;;;;;;323.15;35.60;;;7.70;99.90;;;;;;5072902;28;20090;-80
2021/12/16 10:25:47;;;;;;;296.02;31.80;;;7.70;99.90;;;;;;5068062;28;20040;-80
2021/12/16 10:28:24;;;;;;;189.70;25.92;;;7.70;99.90;;;;;;5072947;28;20045;-80
2021/12/16 10:31:10;;;;;;;312.20;33.22;;;7.70;99.90;;;;;;5072210;28;20041;-80
2021/12/16 10:33:45;;;;;;;281.38;32.55;;;7.80;99.90;;;;;;5087599;28;20044;-80
2021/12/16 10:36:24;;;;;;;278.48;29.02;;;7.80;99.90;;;;;;5051519;28;20075;-81
2021/12/16 10:38:55;;;;;;;182.55;22.25;;;7.80;99.90;;;;;;5072162;28;20089;-80
2021/12/16 10:41:29;;;;;;;199.30;25.98;;;8.30;99.90;;;;;;5072312;28;20032;-80
2021/12/16 10:44:14;;;;;;;233.57;25.27;;;7.80;99.90;;;;;;5070327;28;20044;-80
2021/12/16 10:46:50;;;;;;;168.27;22.55;;;7.80;99.90;;;;;;5071897;28;20033;-80
2021/12/16 10:49:25;;;;;;;118.15;21.25;;;7.80;99.90;;;;;;5055471;28;20044;-80
2021/12/16 10:52:00;;;;;;;181.25;22.48;;;7.90;99.90;;;;;;5070159;28;20037;-80
2021/12/16 10:54:38;;;;;;;134.40;20.92;;;7.80;99.90;;;;;;5071209;28;20489;-80
2021/12/16 10:57:10;;;;;;;163.13;22.38;;;7.90;99.90;;;;;;5071620;28;20040;-80
2021/12/16 10:59:37;;;;;;;180.70;22.77;;;8.00;99.90;;;;;;5069111;28;20032;-80
2021/12/16 11:02:22;;;;;;;191.25;21.48;;;7.90;99.90;;;;;;5055035;28;20036;-80
2021/12/16 11:05:11;;;;;;;173.18;22.05;;;8.00;99.90;;;;;;5071406;28;20040;-80
2021/12/16 11:07:40;;;;;;;140.48;20.35;;;8.00;99.90;;;;;;5068012;28;20036;-80
2021/12/16 11:10:29;;;;;;;143.88;20.13;;;8.00;99.90;;;;;;5054669;28;20032;-80
2021/12/16 11:12:57;;;;;;;137.13;20.73;;;8.00;99.90;;;;;;5086611;28;20488;-80
2021/12/16 11:15:40;;;;;;;114.90;21.27;;;8.00;99.90;;;;;;5071094;28;20141;-80
2021/12/16 11:18:16;;;;;;;108.50;19.17;;;8.10;99.90;;;;;;5053553;28;20032;-80
2021/12/16 11:20:58;;;;;;;105.13;20.67;;;8.10;99.90;;;;;;5069261;28;20513;-80
2021/12/16 11:23:40;;;;;;;146.38;22.67;;;8.10;99.90;;;;;;5054607;28;20101;-80
2021/12/16 11:26:09;;;;;;;232.73;29.17;;;8.10;99.90;;;;;;5071434;28;20089;-80
2021/12/16 11:28:48;;;;;;;230.73;29.58;;;8.10;99.90;;;;;;5053487;28;20415;-80
2021/12/16 11:31:28;;;;;;;283.75;36.15;;;8.10;99.90;;;;;;5071816;28;20063;-79
2021/12/16 11:34:11;;;;;;;297.63;38.58;;;8.20;99.90;;;;;;5071527;28;20044;-80
2021/12/16 11:36:43;;;;;;;253.23;38.53;;;8.10;99.90;;;;;;5070452;28;20081;-80
2021/12/16 11:39:09;;;;;;;196.13;27.02;;;8.10;99.90;;;;;;5069511;28;20048;-80
2021/12/16 11:41:40;;;;;;;245.43;33.05;;;8.20;99.90;;;;;;5070981;28;20584;-80
2021/12/16 11:44:19;;;;;;;215.25;35.15;;;8.20;99.90;;;;;;5070831;28;20410;-80
2021/12/16 11:47:15;;;;;;;150.23;27.88;;;8.20;99.90;;;;;;5054559;28;20059;-79
2021/12/16 11:49:54;;;;;;;172.15;27.23;;;8.20;99.90;;;;;;5050083;28;20136;-79
2021/12/16 11:52:33;;;;;;;146.25;26.08;;;8.20;99.90;;;;;;5055137;28;20044;-80
2021/12/16 11:55:07;;;;;;;197.10;30.38;;;8.30;99.90;;;;;;5070483;28;20561;-80
2021/12/16 11:57:35;;;;;;;110.85;24.50;;;8.30;99.90;;;;;;5064768;28;20123;-80
2021/12/16 12:00:07;;;;;;;151.32;27.50;;;8.20;99.90;;;;;;5071204;28;20037;-80
2021/12/16 12:02:37;;;;;;;115.22;24.17;;;8.30;99.90;;;;;;5070740;28;20036;-80
2021/12/16 12:05:12;;;;;;;137.88;26.20;;;8.30;99.90;;;;;;5071019;28;20090;-79
2021/12/16 12:07:47;;;;;;;140.82;24.55;;;8.30;99.90;;;;;;5065483;28;20054;-80
2021/12/16 12:10:15;;;;;;;125.00;24.15;;;8.30;99.90;;;;;;5071165;28;20048;-80
2021/12/16 12:12:49;;;;;;;146.07;24.48;;;8.30;99.90;;;;;;5069964;28;20056;-80
2021/12/16 12:15:18;;;;;;;144.45;24.88;;;8.40;99.90;;;;;;5070038;28;20488;-79
2021/12/16 12:17:55;;;;;;;189.38;27.95;;;8.40;99.90;;;;;;5070393;28;20102;-80
2021/12/16 12:20:32;;;;;;;204.43;30.83;;;8.30;99.90;;;;;;5068854;28;20488;-80
2021/12/16 12:23:00;;;;;;;110.82;23.67;;;8.40;99.90;;;;;;5054119;28;20043;-80
2021/12/16 12:25:26;;;;;;;168.75;27.02;;;8.40;99.90;;;;;;5070336;28;20036;-80
2021/12/16 12:27:52;;;;;;;91.88;21.83;;;8.40;99.90;;;;;;5037867;28;20365;-80
2021/12/16 12:30:19;;;;;;;88.22;21.73;;;8.40;99.90;;;;;;5070710;28;20134;-80
2021/12/16 12:32:48;;;;;;;105.85;22.45;;;8.40;99.90;;;;;;5070297;28;20071;-80
2021/12/16 12:35:22;;;;;;;111.20;24.70;;;8.50;99.90;;;;;;5053923;28;20032;-80
2021/12/16 12:37:51;;;;;;;92.10;21.50;;;8.50;99.90;;;;;;5068082;28;20068;-80
2021/12/16 12:40:23;;;;;;;60.28;17.90;;;8.50;99.90;;;;;;5054125;28;20502;-80
2021/12/16 12:42:51;;;;;;;57.50;17.73;;;8.50;99.90;;;;;;5069789;28;20075;-81
2021/12/16 12:45:21;;;;;;;68.03;19.25;;;8.50;99.90;;;;;;5051153;28;20093;-80
2021/12/16 12:47:53;;;;;;;54.22;17.05;;;8.50;99.90;;;;;;5069791;28;20076;-80
2021/12/16 12:50:21;;;;;;;51.75;16.15;;;8.60;99.90;;;;;;5069932;28;20075;-80
2021/12/16 12:52:51;;;;;;;43.38;15.40;;;8.60;99.90;;;;;;5069822;28;20041;-80
2021/12/16 12:55:19;;;;;;;45.58;16.15;;;8.60;99.90;;;;;;5054232;28;20032;-80
2021/12/16 12:57:46;;;;;;;36.17;13.98;;;8.60;99.90;;;;;;5069997;28;20037;-80
2021/12/16 13:00:33;;;;;;;42.35;14.65;;;8.60;99.90;;;;;;5053295;28;20033;-80
2021/12/16 13:03:03;;;;;;;36.97;14.50;;;8.60;99.90;;;;;;5065726;28;20036;-80
2021/12/16 13:05:30;;;;;;;43.72;14.85;;;8.60;99.90;;;;;;5069591;28;20089;-80
2021/12/16 13:08:06;;;;;;;;;;;8.60;99.90;;;;;;5037371;28;20044;-80
2021/12/16 13:10:38;;;;;;;39.42;14.18;;;8.70;99.90;;;;;;5069945;28;20051;-80
2021/12/16 13:16:00;;;;;;;62.65;18.15;;;8.70;99.90;;;;;;5064602;28;20052;-81
2021/12/16 13:24:32;;;;;;;77.32;20.15;;;9.00;99.90;;;;;;5056287;28;20131;-81
2021/12/16 13:27:24;;;;;;;67.25;18.58;;;8.80;99.90;;;;;;5068656;28;20040;-81
2021/12/16 13:30:23;;;;;;;61.30;17.65;;;8.80;99.90;;;;;;5064997;28;20129;-81
2021/12/16 13:33:15;;;;;;;66.20;18.08;;;8.80;99.90;;;;;;5064540;28;20074;-82
2021/12/16 13:35:49;;;;;;;63.05;17.63;;;8.80;99.90;;;;;;5102135;28;20128;-81
2021/12/16 13:38:17;;;;;;;72.28;19.40;;;8.80;99.90;;;;;;5053596;28;20032;-81
2021/12/16 13:40:43;;;;;;;80.65;19.30;;;8.80;99.90;;;;;;5053236;28;20462;-80
2021/12/16 13:43:24;;;;;;;77.93;18.77;;;8.80;99.90;;;;;;5070298;28;21098;-81
2021/12/16 14:05:21;;;;;;;70.32;17.58;;;8.80;99.90;;;;;;5072488;28;20049;-81
2021/12/16 14:07:59;;;;;;;37.53;11.77;;;8.70;99.90;;;;;;5073816;28;20416;-81
2021/12/16 14:36:22;;;;;;;59.63;14.38;;;8.70;99.90;;;;;;5073197;28;20045;-81
2021/12/16 14:41:42;;;;;;;49.00;13.57;;;8.70;99.90;;;;;;5073503;28;20044;-81
2021/12/16 14:47:01;;;;;;;44.20;12.85;;;8.60;99.90;;;;;;5070813;28;20118;-81
2021/12/16 14:49:41;;;;;;;38.00;11.40;;;8.60;99.90;;;;;;5071237;28;20047;-81
2021/12/16 14:52:24;;;;;;;43.30;12.48;;;8.70;99.90;;;;;;5073419;28;20055;-81
2021/12/16 14:55:01;;;;;;;67.85;16.92;;;8.60;99.90;;;;;;5056058;28;20128;-81
2021/12/16 14:57:41;;;;;;;60.60;15.25;;;8.60;99.90;;;;;;5072889;28;20120;-80
2021/12/16 15:00:35;;;;;;;56.97;15.98;;;8.70;99.90;;;;;;5072482;28;20040;-80
2021/12/16 15:03:15;;;;;;;59.55;14.88;;;8.60;99.90;;;;;;5064086;28;20046;-81
2021/12/16 15:05:45;;;;;;;53.53;14.43;;;8.60;99.90;;;;;;5072512;28;20041;-81
2021/12/16 15:08:27;;;;;;;50.70;14.45;;;8.60;99.90;;;;;;5053978;28;20040;-80
2021/12/16 15:10:56;;;;;;;68.05;16.23;;;8.60;99.90;;;;;;5065609;28;20044;-81
2021/12/16 15:44:16;;;;;;;45.88;12.93;;;8.40;99.90;;;;;;5063980;28;20056;-81
2021/12/16 15:46:42;;;;;;;34.85;11.85;;;8.30;99.90;;;;;;5070841;28;20134;-81
2021/12/16 15:49:08;;;;;;;36.22;10.95;;;8.30;99.90;;;;;;5071247;28;20353;-81
2021/12/16 15:51:35;;;;;;;33.13;11.27;;;8.30;99.90;;;;;;5054605;28;20044;-81
2021/12/16 15:54:02;;;;;;;29.73;10.32;;;8.50;99.90;;;;;;5070793;28;20385;-80
2021/12/16 15:56:33;;;;;;;31.08;11.40;;;8.30;99.90;;;;;;5070985;28;20051;-81
2021/12/16 15:59:07;;;;;;;31.45;11.00;;;8.30;99.90;;;;;;5054472;28;20086;-81
2021/12/16 16:01:40;;;;;;;34.55;11.30;;;8.30;99.90;;;;;;5054417;28;20033;-81
2021/12/16 16:04:13;;;;;;;37.85;12.75;;;8.30;99.90;;;;;;5069375;28;20040;-81
2021/12/16 16:06:47;;;;;;;44.75;13.50;;;8.50;99.90;;;;;;5054684;28;20511;-80
2021/12/16 16:09:15;;;;;;;58.92;12.73;;;8.40;99.90;;;;;;5068213;28;20045;-81
2021/12/16 16:11:49;;;;;;;55.10;15.02;;;8.30;99.90;;;;;;5054256;28;20097;-80
2021/12/16 16:14:17;;;;;;;46.45;14.55;;;8.40;99.90;;;;;;5070247;28;20086;-80
2021/12/16 16:16:53;;;;;;;55.10;15.38;;;8.30;99.90;;;;;;5071034;28;20036;-81
2021/12/16 16:19:29;;;;;;;77.43;16.98;;;8.30;99.90;;;;;;5055059;28;20032;-81
2021/12/16 16:22:00;;;;;;;77.03;17.75;;;8.40;99.90;;;;;;5051462;28;20040;-81
2021/12/16 16:24:33;;;;;;;60.22;15.73;;;8.50;99.90;;;;;;5053207;28;20423;-80
2021/12/16 16:27:02;;;;;;;72.68;17.08;;;8.40;99.90;;;;;;5050075;28;20123;-81
2021/12/16 16:29:30;;;;;;;65.30;16.33;;;8.40;99.90;;;;;;5068466;28;20337;-81
2021/12/16 16:31:57;;;;;;;94.47;18.55;;;8.40;99.90;;;;;;5069432;28;20044;-80
2021/12/16 16:34:48;;;;;;;76.78;17.50;;;8.40;99.90;;;;;;5070254;28;20164;-80
2021/12/16 16:37:31;;;;;;;54.42;15.50;;;8.40;99.90;;;;;;5067575;28;20040;-80
2021/12/16 16:40:08;;;;;;;62.38;17.60;;;8.40;99.90;;;;;;5053313;28;20068;-80
2021/12/16 16:42:41;;;;;;;62.47;16.25;;;8.40;99.90;;;;;;5069509;28;20039;-80
2021/12/16 16:45:18;;;;;;;64.40;17.15;;;8.40;99.90;;;;;;5069764;28;20040;-80
2021/12/16 16:47:50;;;;;;;65.63;16.95;;;8.40;99.90;;;;;;5069085;28;20119;-80
2021/12/16 16:50:18;;;;;;;71.70;17.85;;;8.40;99.90;;;;;;5067754;28;20036;-80
2021/12/16 16:52:48;;;;;;;91.53;18.20;;;8.40;99.90;;;;;;5068778;28;20063;-80
2021/12/16 16:55:34;;;;;;;76.07;18.90;;;8.40;99.90;;;;;;5069556;28;20345;-80
2021/12/16 16:58:14;;;;;;;129.65;21.73;;;8.40;99.90;;;;;;5069145;28;20410;-80
2021/12/16 17:00:44;;;;;;;83.65;18.98;;;8.40;99.90;;;;;;5070259;28;20039;-81
2021/12/16 17:03:16;;;;;;;68.97;17.25;;;8.40;99.90;;;;;;5053607;28;20473;-82